createdAt,value
2018-04-18T00:01:34.040Z,13.23
2018-04-18T00:04:02.326Z,13.30
2018-04-18T00:06:30.635Z,13.40
2018-04-18T00:08:59.005Z,14.23
2018-04-18T00:11:27.526Z,13.27
2018-04-18T00:13:55.819Z,14.33
2018-04-18T00:16:24.147Z,13.80
2018-04-18T00:18:52.394Z,14.10
2018-04-18T00:21:20.688Z,13.73
2018-04-18T00:23:48.930Z,15.00
2018-04-18T00:26:23.777Z,14.73
2018-04-18T00:28:52.189Z,15.13
2018-04-18T00:31:20.691Z,13.90
2018-04-18T00:33:49.126Z,14.97
2018-04-18T00:36:17.405Z,13.53
2018-04-18T00:38:45.694Z,13.87
2018-04-18T00:41:13.964Z,14.63
2018-04-18T00:43:42.218Z,14.93
2018-04-18T00:46:10.758Z,14.30
2018-04-18T00:48:39.035Z,14.03
2018-04-18T00:51:07.536Z,15.47
2018-04-18T00:53:35.799Z,13.70
2018-04-18T00:56:04.088Z,14.23
2018-04-18T00:58:32.418Z,13.23
2018-04-18T01:01:00.770Z,14.33
2018-04-18T01:03:29.027Z,14.20
2018-04-18T01:05:57.770Z,15.00
2018-04-18T01:08:26.036Z,13.63
2018-04-18T01:10:54.330Z,14.63
2018-04-18T01:13:22.626Z,13.77
2018-04-18T01:15:51.118Z,13.90
2018-04-18T01:18:19.467Z,15.27
2018-04-18T01:20:47.850Z,15.10
2018-04-18T01:23:16.107Z,14.17
2018-04-18T01:25:44.390Z,14.53
2018-04-18T01:28:12.656Z,14.03
2018-04-18T01:30:40.947Z,14.70
2018-04-18T01:33:09.393Z,15.80
2018-04-18T01:35:37.710Z,14.37
2018-04-18T01:38:06.153Z,14.80
2018-04-18T01:40:34.456Z,14.83
2018-04-18T01:43:02.710Z,15.13
2018-04-18T01:45:31.030Z,15.97
2018-04-18T01:47:59.447Z,14.63
2018-04-18T01:50:27.770Z,14.50
2018-04-18T01:52:56.055Z,13.03
2018-04-18T01:55:24.337Z,14.03
2018-04-18T01:57:52.603Z,15.00
2018-04-18T02:00:21.099Z,15.53
2018-04-18T02:02:49.386Z,14.23
2018-04-18T02:05:17.670Z,14.83
2018-04-18T02:07:46.097Z,14.30
2018-04-18T02:10:14.418Z,13.13
2018-04-18T02:12:42.913Z,13.50
2018-04-18T02:15:11.166Z,14.27
2018-04-18T02:17:39.436Z,15.50
2018-04-18T02:20:07.736Z,12.97
2018-04-18T02:22:36.832Z,15.10
2018-04-18T02:25:05.346Z,14.43
2018-04-18T02:27:33.670Z,15.10
2018-04-18T02:30:02.086Z,14.63
2018-04-18T02:32:30.395Z,14.37
2018-04-18T02:34:58.651Z,14.90
2018-04-18T02:37:26.989Z,16.17
2018-04-18T02:39:55.419Z,15.37
2018-04-18T02:42:26.714Z,15.30
2018-04-18T02:44:54.949Z,14.87
2018-04-18T02:47:23.233Z,14.40
2018-04-18T02:49:51.498Z,14.63
2018-04-18T02:52:20.016Z,13.40
2018-04-18T02:54:48.310Z,13.83
2018-04-18T02:57:16.599Z,13.73
2018-04-18T02:59:44.871Z,14.30
2018-04-18T03:02:13.158Z,13.97
2018-04-18T03:04:41.418Z,15.13
2018-04-18T03:07:09.711Z,14.70
2018-04-18T03:09:38.129Z,14.80
2018-04-18T03:12:06.454Z,14.50
2018-04-18T03:14:35.086Z,14.40
2018-04-18T03:17:03.386Z,15.97
2018-04-18T03:19:31.645Z,14.43
2018-04-18T03:22:00.083Z,15.10
2018-04-18T03:24:28.394Z,13.80
2018-04-18T03:26:56.689Z,15.97
2018-04-18T03:29:24.970Z,13.83
2018-04-18T03:31:53.262Z,13.13
2018-04-18T03:34:21.503Z,14.20
2018-04-18T03:36:49.795Z,13.87
2018-04-18T03:39:18.071Z,13.90
2018-04-18T03:41:46.347Z,13.60
2018-04-18T03:44:14.787Z,13.40
2018-04-18T03:46:43.100Z,14.90
2018-04-18T03:49:11.359Z,14.60
2018-04-18T03:51:39.650Z,15.00
2018-04-18T03:54:08.110Z,14.60
2018-04-18T03:56:36.650Z,14.03
2018-04-18T03:59:05.302Z,12.77
2018-04-18T04:04:29.126Z,13.97
2018-04-18T04:06:57.562Z,15.17
2018-04-18T04:09:25.819Z,14.73
2018-04-18T04:11:54.433Z,13.33
2018-04-18T04:14:22.683Z,13.47
2018-04-18T04:17:02.275Z,15.27
2018-04-18T04:22:45.718Z,14.90
2018-04-18T04:25:14.182Z,14.30
2018-04-18T04:27:42.450Z,14.50
2018-04-18T04:30:10.862Z,14.90
2018-04-18T04:32:39.106Z,14.80
2018-04-18T04:35:07.419Z,13.90
2018-04-18T04:37:35.672Z,15.07
2018-04-18T04:40:04.011Z,16.13
2018-04-18T04:42:32.313Z,15.70
2018-04-18T04:45:00.582Z,16.37
2018-04-18T04:47:28.862Z,14.80
2018-04-18T04:49:57.108Z,15.63
2018-04-18T04:52:25.415Z,15.07
2018-04-18T04:54:53.991Z,14.80
2018-04-18T04:57:22.323Z,16.60
2018-04-18T04:59:50.654Z,15.20
2018-04-18T05:02:18.931Z,14.80
2018-04-18T05:04:47.185Z,15.00
2018-04-18T05:07:15.488Z,18.00
2018-04-18T05:09:43.843Z,17.00
2018-04-18T05:12:12.203Z,15.00
2018-04-18T05:14:40.509Z,15.60
2018-04-18T05:17:08.800Z,15.60
2018-04-18T05:19:37.269Z,14.50
2018-04-18T05:22:05.559Z,16.73
2018-04-18T05:24:33.887Z,16.37
2018-04-18T05:27:02.187Z,16.43
2018-04-18T05:29:30.681Z,17.20
2018-04-18T05:31:58.971Z,17.10
2018-04-18T05:34:27.265Z,17.03
2018-04-18T05:36:55.568Z,18.77
2018-04-18T05:39:23.853Z,25.27
2018-04-18T05:41:52.167Z,21.47
2018-04-18T05:44:20.554Z,26.50
2018-04-18T05:46:48.871Z,21.00
2018-04-18T05:49:17.214Z,26.50
2018-04-18T05:51:45.695Z,31.60
2018-04-18T05:54:13.991Z,28.83
2018-04-18T05:56:42.290Z,36.03
2018-04-18T05:59:10.668Z,37.00
2018-04-18T06:01:39.181Z,38.00
2018-04-18T06:04:07.479Z,36.50
2018-04-18T06:06:35.770Z,36.57
2018-04-18T06:09:04.127Z,37.80
2018-04-18T06:11:32.551Z,36.67
2018-04-18T06:14:00.913Z,34.27
2018-04-18T06:16:29.219Z,33.17
2018-04-18T06:18:57.598Z,35.73
2018-04-18T06:21:25.979Z,34.67
2018-04-18T06:23:54.254Z,35.80
2018-04-18T06:26:22.766Z,35.07
2018-04-18T06:28:51.151Z,34.83
2018-04-18T06:31:19.559Z,32.70
2018-04-18T06:33:47.850Z,34.80
2018-04-18T06:36:16.154Z,34.70
2018-04-18T06:38:44.406Z,33.63
2018-04-18T06:41:12.694Z,30.70
2018-04-18T06:43:41.139Z,33.93
2018-04-18T06:46:09.615Z,33.30
2018-04-18T06:48:37.900Z,32.70
2018-04-18T06:51:06.321Z,32.90
2018-04-18T06:53:34.618Z,31.97
2018-04-18T06:56:02.915Z,31.60
2018-04-18T06:58:31.198Z,30.33
2018-04-18T07:00:59.495Z,29.37
2018-04-18T07:03:27.986Z,29.57
2018-04-18T07:05:56.451Z,29.77
2018-04-18T07:08:24.732Z,31.23
2018-04-18T07:10:53.030Z,29.57
2018-04-18T07:13:23.861Z,31.10
2018-04-18T07:15:55.198Z,29.30
2018-04-18T07:18:23.723Z,28.57
2018-04-18T07:20:52.675Z,25.60
2018-04-18T07:23:21.134Z,26.93
2018-04-18T07:25:50.074Z,26.40
2018-04-18T07:28:18.651Z,25.50
2018-04-18T07:30:47.300Z,24.57
2018-04-18T07:33:16.831Z,24.70
2018-04-18T07:35:45.174Z,23.13
2018-04-18T07:38:13.456Z,23.00
2018-04-18T07:40:41.742Z,21.27
2018-04-18T07:43:10.156Z,22.70
2018-04-18T07:45:38.495Z,20.70
2018-04-18T07:48:06.855Z,22.90
2018-04-18T07:50:35.161Z,21.33
2018-04-18T07:53:03.444Z,21.87
2018-04-18T07:56:30.901Z,19.80
2018-04-18T07:58:59.241Z,18.00
2018-04-18T08:01:27.566Z,18.27
2018-04-18T08:03:55.824Z,17.13
2018-04-18T08:06:24.099Z,17.60
2018-04-18T08:08:52.474Z,18.37
2018-04-18T08:11:20.805Z,16.10
2018-04-18T08:13:49.102Z,17.13
2018-04-18T08:16:17.382Z,16.20
2018-04-18T08:18:45.662Z,15.40
2018-04-18T08:21:14.153Z,14.10
2018-04-18T08:23:42.456Z,15.77
2018-04-18T08:26:10.973Z,14.83
2018-04-18T08:28:39.272Z,16.63
2018-04-18T08:31:07.713Z,14.77
2018-04-18T08:33:35.978Z,14.50
2018-04-18T08:36:04.549Z,16.73
2018-04-18T08:38:32.902Z,16.20
2018-04-18T08:41:01.227Z,15.00
2018-04-18T08:43:29.605Z,17.97
2018-04-18T08:45:57.894Z,19.07
2018-04-18T08:48:26.180Z,16.20
2018-04-18T08:50:54.478Z,12.20
2018-04-18T08:53:22.750Z,14.17
2018-04-18T08:55:51.046Z,13.83
2018-04-18T08:58:19.316Z,15.40
2018-04-18T09:00:47.744Z,15.03
2018-04-18T09:03:16.102Z,15.17
2018-04-18T09:05:44.604Z,14.30
2018-04-18T09:08:12.859Z,14.67
2018-04-18T09:10:41.307Z,14.03
2018-04-18T09:13:10.043Z,14.43
2018-04-18T09:15:38.623Z,13.57
2018-04-18T09:18:06.903Z,14.40
2018-04-18T09:20:35.232Z,13.97
2018-04-18T09:23:03.703Z,14.50
2018-04-18T09:25:32.012Z,14.60
2018-04-18T09:28:00.279Z,15.53
2018-04-18T09:30:28.772Z,14.30
2018-04-18T09:32:57.084Z,13.03
2018-04-18T09:35:25.374Z,14.23
2018-04-18T09:37:53.660Z,14.33
2018-04-18T09:40:22.066Z,13.57
2018-04-18T09:42:50.426Z,14.60
2018-04-18T09:45:18.716Z,13.33
2018-04-18T09:47:47.012Z,14.23
2018-04-18T09:50:15.338Z,15.03
2018-04-18T09:52:43.808Z,13.13
2018-04-18T09:55:12.238Z,14.90
2018-04-18T09:57:40.509Z,14.80
2018-04-18T10:00:08.898Z,13.40
2018-04-18T10:02:37.811Z,13.60
2018-04-18T10:05:07.870Z,13.47
2018-04-18T10:07:36.123Z,15.80
2018-04-18T10:10:04.479Z,14.23
2018-04-18T10:12:33.248Z,12.37
2018-04-18T10:15:01.531Z,13.77
2018-04-18T10:17:30.103Z,12.60
2018-04-18T10:19:58.431Z,14.63
2018-04-18T10:22:27.784Z,11.63
2018-04-18T10:24:56.202Z,13.50
2018-04-18T10:27:25.125Z,11.13
2018-04-18T10:29:54.917Z,13.57
2018-04-18T10:32:23.220Z,13.03
2018-04-18T10:34:51.523Z,12.17
2018-04-18T10:37:19.819Z,12.20
2018-04-18T10:39:48.125Z,10.60
2018-04-18T10:42:16.472Z,10.37
2018-04-18T10:44:44.762Z,9.33
2018-04-18T10:47:13.107Z,11.03
2018-04-18T10:49:41.407Z,11.47
2018-04-18T10:52:10.050Z,11.20
2018-04-18T10:54:38.727Z,10.53
2018-04-18T10:57:07.105Z,11.00
2018-04-18T10:59:35.453Z,10.13
2018-04-18T11:02:03.911Z,11.83
2018-04-18T11:04:32.315Z,9.50
2018-04-18T11:07:00.619Z,8.47
2018-04-18T11:09:28.900Z,8.10
2018-04-18T11:11:57.229Z,9.90
2018-04-18T11:14:25.718Z,9.43
2018-04-18T11:16:54.259Z,7.80
2018-04-18T11:19:22.551Z,8.27
2018-04-18T11:21:51.102Z,8.03
2018-04-18T11:24:19.407Z,6.83
2018-04-18T11:26:47.774Z,6.57
2018-04-18T11:29:16.088Z,5.93
2018-04-18T11:31:44.402Z,6.00
2018-04-18T11:34:12.917Z,5.83
2018-04-18T11:36:41.383Z,5.90
2018-04-18T11:39:09.648Z,5.73
2018-04-18T11:41:38.568Z,5.73
2018-04-18T11:44:08.263Z,5.73
2018-04-18T11:46:36.836Z,5.43
2018-04-18T11:49:05.206Z,6.30
2018-04-18T11:51:33.494Z,6.23
2018-04-18T11:54:01.872Z,5.63
2018-04-18T11:56:30.162Z,5.87
2018-04-18T11:58:58.607Z,5.60
2018-04-18T12:01:26.925Z,6.10
2018-04-18T12:03:55.282Z,5.30
2018-04-18T12:06:23.720Z,6.20
2018-04-18T12:08:51.995Z,6.37
2018-04-18T12:11:20.310Z,6.60
2018-04-18T12:13:48.678Z,5.20
2018-04-18T12:16:16.989Z,5.80
2018-04-18T12:18:45.257Z,5.23
2018-04-18T12:21:13.617Z,5.40
2018-04-18T12:23:42.101Z,4.70
2018-04-18T12:26:10.428Z,5.13
2018-04-18T12:28:38.848Z,5.33
2018-04-18T12:31:07.130Z,5.13
2018-04-18T12:33:35.433Z,5.03
2018-04-18T12:36:03.771Z,4.63
2018-04-18T12:38:32.225Z,5.30
2018-04-18T12:41:00.526Z,5.63
2018-04-18T12:43:28.878Z,4.97
2018-04-18T12:45:57.270Z,5.90
2018-04-18T12:48:25.587Z,5.50
2018-04-18T12:50:54.000Z,5.60
2018-04-18T12:53:22.371Z,5.93
2018-04-18T12:55:50.707Z,4.70
2018-04-18T12:58:19.001Z,4.90
2018-04-18T13:00:47.301Z,4.30
2018-04-18T13:03:15.657Z,5.80
2018-04-18T13:05:44.046Z,4.57
2018-04-18T13:08:12.343Z,4.37
2018-04-18T13:10:40.798Z,5.23
2018-04-18T13:13:09.088Z,4.43
2018-04-18T13:15:37.466Z,5.13
2018-04-18T13:18:06.113Z,4.17
2018-04-18T13:20:34.513Z,3.50
2018-04-18T13:23:02.785Z,4.57
2018-04-18T13:25:31.132Z,4.13
2018-04-18T13:27:59.507Z,4.53
2018-04-18T13:30:27.856Z,4.00
2018-04-18T13:32:56.130Z,4.60
2018-04-18T13:35:24.491Z,4.80
2018-04-18T13:37:52.842Z,4.47
2018-04-18T13:40:21.474Z,3.90
2018-04-18T13:42:49.991Z,4.00
2018-04-18T13:45:18.319Z,4.37
2018-04-18T13:47:46.599Z,3.80
2018-04-18T13:50:15.339Z,3.87
2018-04-18T13:52:44.610Z,4.00
2018-04-18T13:55:12.907Z,3.73
2018-04-18T13:57:41.179Z,3.60
2018-04-18T14:00:09.730Z,4.10
2018-04-18T14:02:38.016Z,3.87
2018-04-18T14:05:06.377Z,4.30
2018-04-18T14:07:34.669Z,4.50
2018-04-18T14:10:02.977Z,4.50
2018-04-18T14:12:31.295Z,4.23
2018-04-18T14:14:59.535Z,4.23
2018-04-18T14:17:27.858Z,4.07
2018-04-18T14:19:57.582Z,3.60
2018-04-18T14:22:26.276Z,4.70
2018-04-18T14:24:54.511Z,5.20
2018-04-18T14:27:23.066Z,5.07
2018-04-18T14:29:51.392Z,4.47
2018-04-18T14:32:19.698Z,4.70
2018-04-18T14:34:47.951Z,6.67
2018-04-18T14:37:16.263Z,6.10
2018-04-18T14:39:44.590Z,6.10
2018-04-18T14:42:13.072Z,6.60
2018-04-18T14:44:41.817Z,6.10
2018-04-18T14:47:10.313Z,7.27
2018-04-18T14:49:38.574Z,7.30
2018-04-18T14:52:07.409Z,6.10
2018-04-18T14:54:35.931Z,7.20
2018-04-18T14:57:04.289Z,6.50
2018-04-18T14:59:32.531Z,7.23
2018-04-18T15:02:00.844Z,7.10
2018-04-18T15:04:29.123Z,5.83
2018-04-18T15:06:57.599Z,8.00
2018-04-18T15:09:25.862Z,6.87
2018-04-18T15:11:54.202Z,6.87
2018-04-18T15:14:22.539Z,7.40
2018-04-18T15:16:51.044Z,6.57
2018-04-18T15:19:19.364Z,7.30
2018-04-18T15:21:47.688Z,7.00
2018-04-18T15:24:16.295Z,6.60
2018-04-18T15:26:44.995Z,6.80
2018-04-18T15:29:13.396Z,6.00
2018-04-18T15:31:41.851Z,6.17
2018-04-18T15:34:10.120Z,6.07
2018-04-18T15:36:38.632Z,5.97
2018-04-18T15:39:07.273Z,7.03
2018-04-18T15:41:35.562Z,7.60
2018-04-18T15:44:03.968Z,6.80
2018-04-18T15:46:32.330Z,6.13
2018-04-18T15:49:00.702Z,5.83
2018-04-18T15:51:29.090Z,5.87
2018-04-18T15:53:57.410Z,6.50
2018-04-18T15:56:26.050Z,5.53
2018-04-18T15:58:54.838Z,6.63
2018-04-18T16:01:23.258Z,6.50
2018-04-18T16:03:51.548Z,7.00
2018-04-18T16:06:20.370Z,6.20
2018-04-18T16:08:48.610Z,5.50
2018-04-18T16:11:16.902Z,5.83
2018-04-18T16:13:45.334Z,6.00
2018-04-18T16:16:13.682Z,5.40
2018-04-18T16:18:41.967Z,5.60
2018-04-18T16:21:10.435Z,5.67
2018-04-18T16:23:38.873Z,6.00
2018-04-18T16:26:07.180Z,6.57
2018-04-18T16:28:35.497Z,6.07
2018-04-18T16:31:03.981Z,6.40
2018-04-18T16:33:32.294Z,6.70
2018-04-18T16:36:00.715Z,6.90
2018-04-18T16:38:29.189Z,5.40
2018-04-18T16:40:57.522Z,7.27
2018-04-18T16:43:25.773Z,5.70
2018-04-18T16:46:00.906Z,6.37
2018-04-18T16:48:29.367Z,5.80
2018-04-18T16:50:58.374Z,7.20
2018-04-18T16:53:27.210Z,6.73
2018-04-18T16:55:55.634Z,6.60
2018-04-18T16:58:23.911Z,6.30
2018-04-18T17:00:52.208Z,7.10
2018-04-18T17:03:20.461Z,6.23
2018-04-18T17:05:48.766Z,6.20
2018-04-18T17:08:17.203Z,6.17
2018-04-18T17:10:45.541Z,5.40
2018-04-18T17:13:13.891Z,6.90
2018-04-18T17:15:42.379Z,6.60
2018-04-18T17:18:10.806Z,5.93
2018-04-18T17:20:39.250Z,5.70
2018-04-18T17:23:07.629Z,5.10
2018-04-18T17:25:35.926Z,6.63
2018-04-18T17:28:04.204Z,6.10
2018-04-18T17:30:32.533Z,6.50
2018-04-18T17:33:00.830Z,6.60
2018-04-18T17:35:29.179Z,6.30
2018-04-18T17:37:57.562Z,6.30
2018-04-18T17:40:25.830Z,6.33
2018-04-18T17:42:54.106Z,5.97
2018-04-18T17:45:22.510Z,6.50
2018-04-18T17:47:50.805Z,5.73
2018-04-18T17:50:19.066Z,6.00
2018-04-18T17:52:47.322Z,6.70
2018-04-18T17:55:15.598Z,6.60
2018-04-18T17:57:43.884Z,7.40
2018-04-18T18:00:12.236Z,7.57
2018-04-18T18:02:40.487Z,8.13
2018-04-18T18:05:08.851Z,7.00
2018-04-18T18:07:37.286Z,7.80
2018-04-18T18:10:05.985Z,7.57
2018-04-18T18:12:34.278Z,7.73
2018-04-18T18:15:02.556Z,8.30
2018-04-18T18:17:31.160Z,8.27
2018-04-18T18:19:59.609Z,8.40
2018-04-18T18:22:28.088Z,7.57
2018-04-18T18:24:56.657Z,8.30
2018-04-18T18:27:24.999Z,9.10
2018-04-18T18:29:53.480Z,8.07
2018-04-18T18:32:21.800Z,8.07
2018-04-18T18:34:50.146Z,9.40
2018-04-18T18:37:18.592Z,8.83
2018-04-18T18:39:46.903Z,8.27
2018-04-18T18:42:15.399Z,9.93
2018-04-18T18:44:43.688Z,10.33
2018-04-18T18:47:12.027Z,9.50
2018-04-18T18:49:40.379Z,9.93
2018-04-18T18:52:08.914Z,10.10
2018-04-18T18:54:37.235Z,10.90
2018-04-18T18:57:05.571Z,10.57
2018-04-18T18:59:33.884Z,10.23
2018-04-18T19:02:02.299Z,10.57
2018-04-18T19:04:30.544Z,9.70
2018-04-18T19:06:58.925Z,10.20
2018-04-18T19:09:27.256Z,10.00
2018-04-18T19:11:55.628Z,10.40
2018-04-18T19:14:23.975Z,12.47
2018-04-18T19:16:52.294Z,10.00
2018-04-18T19:19:20.546Z,11.70
2018-04-18T19:21:48.876Z,12.90
2018-04-18T19:24:17.210Z,11.53
2018-04-18T19:26:45.532Z,11.10
2018-04-18T19:29:14.043Z,11.70
2018-04-18T19:31:42.386Z,12.17
2018-04-18T19:34:17.535Z,10.80
2018-04-18T19:36:45.946Z,12.30
2018-04-18T19:39:14.273Z,11.90
2018-04-18T19:41:43.313Z,11.37
2018-04-18T19:44:11.690Z,11.77
2018-04-18T19:46:40.020Z,12.97
2018-04-18T19:49:08.322Z,13.40
2018-04-18T19:51:36.736Z,11.63
2018-04-18T19:54:05.217Z,12.93
2018-04-18T19:56:33.586Z,12.60
2018-04-18T19:59:02.062Z,13.30
2018-04-18T20:01:30.372Z,13.10
2018-04-18T20:03:58.667Z,13.97
2018-04-18T20:06:27.100Z,13.70
2018-04-18T20:08:55.426Z,14.60
2018-04-18T20:11:23.815Z,15.10
2018-04-18T20:13:52.105Z,14.60
2018-04-18T20:16:20.421Z,14.03
2018-04-18T20:18:48.687Z,13.97
2018-04-18T20:21:17.021Z,16.80
2018-04-18T20:23:45.450Z,18.73
2018-04-18T20:26:13.804Z,19.23
2018-04-18T20:28:42.095Z,17.73
2018-04-18T20:31:10.421Z,17.50
2018-04-18T20:33:38.958Z,16.33
2018-04-18T20:36:07.351Z,17.60
2018-04-18T20:38:35.672Z,16.73
2018-04-18T20:41:04.042Z,16.90
2018-04-18T20:43:32.634Z,15.87
2018-04-18T20:46:01.177Z,20.97
2018-04-18T20:51:03.954Z,16.80
2018-04-18T20:53:32.346Z,17.87
2018-04-18T20:56:00.661Z,18.50
2018-04-18T20:58:29.083Z,18.03
2018-04-18T21:00:57.427Z,17.83
2018-04-18T21:03:25.666Z,19.10
2018-04-18T21:05:53.968Z,18.17
2018-04-18T21:08:22.286Z,17.87
2018-04-18T21:10:50.714Z,18.60
2018-04-18T21:13:18.966Z,19.00
2018-04-18T21:15:47.305Z,19.80
2018-04-18T21:18:15.614Z,19.73
2018-04-18T21:20:44.184Z,18.33
2018-04-18T21:23:12.556Z,20.53
2018-04-18T21:25:40.857Z,20.07
2018-04-18T21:28:09.133Z,21.00
2018-04-18T21:30:37.842Z,19.70
2018-04-18T21:33:06.148Z,20.87
2018-04-18T21:35:34.483Z,22.07
2018-04-18T21:38:02.745Z,20.83
2018-04-18T21:40:31.034Z,19.77
2018-04-18T21:42:59.302Z,19.57
2018-04-18T21:45:27.724Z,18.67
2018-04-18T21:47:56.035Z,19.73
2018-04-18T21:50:24.599Z,20.03
2018-04-18T21:52:52.870Z,20.10
2018-04-18T21:55:21.167Z,20.37
2018-04-18T21:57:49.466Z,19.47
2018-04-18T22:00:18.006Z,20.20
2018-04-18T22:02:46.312Z,19.13
2018-04-18T22:05:15.550Z,18.87
2018-04-18T22:07:43.812Z,19.60
2018-04-18T22:10:12.127Z,19.73
2018-04-18T22:12:40.411Z,19.23
2018-04-18T22:15:08.866Z,20.33
2018-04-18T22:17:37.117Z,20.03
2018-04-18T22:20:05.495Z,19.60
2018-04-18T22:22:33.966Z,19.70
2018-04-18T22:25:02.223Z,20.67
2018-04-18T22:27:30.531Z,18.17
2018-04-18T22:29:58.792Z,20.20
2018-04-18T22:32:27.098Z,20.10
2018-04-18T22:34:55.373Z,20.27
2018-04-18T22:37:23.677Z,18.70
2018-04-18T22:39:51.990Z,18.90
2018-04-18T22:42:20.404Z,19.30
2018-04-18T22:44:48.710Z,18.80
2018-04-18T22:47:17.278Z,18.33
2018-04-18T22:49:45.558Z,19.37
2018-04-18T22:52:13.956Z,17.77
2018-04-18T22:54:42.250Z,18.90
2018-04-18T22:57:10.663Z,18.40
2018-04-18T22:59:38.959Z,18.93
2018-04-18T23:02:08.240Z,18.67
2018-04-18T23:05:35.790Z,18.70
2018-04-18T23:08:04.159Z,18.03
2018-04-18T23:10:32.437Z,17.90
2018-04-18T23:13:00.815Z,18.40
2018-04-18T23:15:29.302Z,18.73
2018-04-18T23:17:57.627Z,19.90
2018-04-18T23:20:25.948Z,19.77
2018-04-18T23:22:54.194Z,19.00
2018-04-18T23:25:22.645Z,20.07
2018-04-18T23:27:51.542Z,18.20
2018-04-18T23:30:19.827Z,18.87
2018-04-18T23:32:48.263Z,20.10
2018-04-18T23:35:16.626Z,18.57
2018-04-18T23:37:44.939Z,19.20
2018-04-18T23:40:13.320Z,20.13
2018-04-18T23:42:41.699Z,19.77
2018-04-18T23:45:09.997Z,19.20
2018-04-18T23:47:38.351Z,19.80
2018-04-18T23:50:06.922Z,20.50
2018-04-18T23:52:35.183Z,19.77
2018-04-18T23:55:03.642Z,20.47
2018-04-18T23:57:32.055Z,19.20
